createdAt,value
2023-03-03T00:00:33.191Z,59.30
2023-03-03T00:01:33.147Z,59.78
2023-03-03T00:02:34.103Z,59.94
2023-03-03T00:03:34.158Z,59.94
2023-03-03T00:04:34.042Z,59.62
2023-03-03T00:05:33.094Z,60.26
2023-03-03T00:06:33.098Z,59.46
2023-03-03T00:07:33.118Z,59.62
2023-03-03T00:08:33.087Z,59.78
2023-03-03T00:09:33.106Z,59.30
2023-03-03T00:10:33.076Z,59.62
2023-03-03T00:11:33.075Z,59.62
2023-03-03T00:12:33.060Z,58.97
2023-03-03T00:13:33.058Z,59.30
2023-03-03T00:14:33.107Z,59.62
2023-03-03T00:15:33.064Z,59.14
2023-03-03T00:16:33.037Z,59.62
2023-03-03T00:17:33.059Z,58.97
2023-03-03T00:18:33.017Z,58.81
2023-03-03T00:19:33.094Z,58.97
2023-03-03T00:20:33.024Z,58.81
2023-03-03T00:21:33.047Z,58.97
2023-03-03T00:22:32.995Z,58.81
2023-03-03T00:23:33.021Z,58.81
2023-03-03T00:24:32.981Z,59.30
2023-03-03T00:25:33.037Z,59.14
2023-03-03T00:26:33.037Z,58.97
2023-03-03T00:27:33.021Z,59.46
2023-03-03T00:28:33.006Z,59.30
2023-03-03T00:29:32.981Z,58.33
2023-03-03T00:30:32.969Z,58.81
2023-03-03T00:31:32.996Z,58.97
2023-03-03T00:32:32.939Z,58.97
2023-03-03T00:33:33.012Z,58.81
2023-03-03T00:34:32.930Z,58.97
2023-03-03T00:35:32.957Z,59.14
2023-03-03T00:36:32.953Z,59.62
2023-03-03T00:37:32.937Z,59.46
2023-03-03T00:38:33.927Z,59.30
2023-03-03T00:39:32.903Z,58.65
2023-03-03T00:40:32.947Z,59.46
2023-03-03T00:41:32.884Z,59.78
2023-03-03T00:42:32.924Z,58.65
2023-03-03T00:43:32.920Z,59.30
2023-03-03T00:44:32.988Z,59.30
2023-03-03T00:45:32.879Z,59.14
2023-03-03T00:46:32.926Z,58.17
2023-03-03T00:47:32.872Z,58.01
2023-03-03T00:48:32.891Z,58.97
2023-03-03T00:49:32.818Z,59.62
2023-03-03T00:50:32.841Z,59.30
2023-03-03T00:51:33.422Z,58.81
2023-03-03T00:52:32.880Z,59.62
2023-03-03T00:53:32.841Z,59.30
2023-03-03T00:54:32.790Z,59.78
2023-03-03T00:55:32.796Z,59.30
2023-03-03T00:56:32.800Z,58.65
2023-03-03T00:57:32.915Z,59.14
2023-03-03T00:58:32.786Z,59.14
2023-03-03T00:59:32.765Z,59.46
2023-03-03T01:00:34.201Z,58.65
2023-03-03T01:01:33.837Z,58.97
2023-03-03T01:02:32.830Z,59.30
2023-03-03T01:03:32.771Z,59.46
2023-03-03T01:04:32.756Z,59.78
2023-03-03T01:05:32.759Z,59.62
2023-03-03T01:06:32.784Z,60.10
2023-03-03T01:07:32.780Z,59.62
2023-03-03T01:08:32.762Z,59.30
2023-03-03T01:09:32.741Z,59.78
2023-03-03T01:10:32.715Z,59.94
2023-03-03T01:11:32.733Z,59.94
2023-03-03T01:12:32.699Z,58.97
2023-03-03T01:13:32.765Z,58.97
2023-03-03T01:14:32.711Z,59.14
2023-03-03T01:15:32.683Z,58.81
2023-03-03T01:16:32.677Z,59.30
2023-03-03T01:17:32.744Z,58.81
2023-03-03T01:18:32.646Z,59.14
2023-03-03T01:19:32.668Z,59.14
2023-03-03T01:20:32.663Z,59.46
2023-03-03T01:21:32.720Z,59.62
2023-03-03T01:22:32.671Z,59.14
2023-03-03T01:23:32.697Z,59.46
2023-03-03T01:24:33.244Z,59.46
2023-03-03T01:25:32.678Z,59.30
2023-03-03T01:26:32.631Z,59.30
2023-03-03T01:27:32.627Z,59.30
2023-03-03T01:28:32.619Z,59.30
2023-03-03T01:29:32.729Z,59.30
2023-03-03T01:30:32.629Z,59.30
2023-03-03T01:31:32.740Z,58.97
2023-03-03T01:32:33.118Z,59.46
2023-03-03T01:33:33.536Z,59.30
2023-03-03T01:34:33.538Z,59.78
2023-03-03T01:35:33.564Z,60.26
2023-03-03T01:36:33.531Z,59.46
2023-03-03T01:37:33.541Z,59.30
2023-03-03T01:38:32.552Z,59.30
2023-03-03T01:39:32.539Z,59.94
2023-03-03T01:40:32.545Z,59.30
2023-03-03T01:41:32.523Z,59.30
2023-03-03T01:42:32.526Z,59.14
2023-03-03T01:43:32.523Z,59.30
2023-03-03T01:44:32.502Z,59.78
2023-03-03T01:45:32.539Z,58.17
2023-03-03T01:46:32.898Z,59.14
2023-03-03T01:47:32.718Z,59.62
2023-03-03T01:48:32.590Z,59.14
2023-03-03T01:49:32.713Z,59.30
2023-03-03T01:50:32.551Z,59.46
2023-03-03T01:51:32.457Z,58.81
2023-03-03T01:52:32.471Z,58.81
2023-03-03T01:53:32.456Z,58.97
2023-03-03T01:54:32.419Z,59.62
2023-03-03T01:55:32.445Z,59.78
2023-03-03T01:56:32.452Z,59.46
2023-03-03T01:57:32.489Z,59.62
2023-03-03T01:58:32.451Z,59.30
2023-03-03T01:59:33.412Z,59.30
2023-03-03T02:00:32.431Z,59.62
2023-03-03T02:01:32.523Z,59.30
2023-03-03T02:02:32.433Z,59.62
2023-03-03T02:03:32.403Z,60.10
2023-03-03T02:04:32.384Z,60.10
2023-03-03T02:05:32.406Z,59.46
2023-03-03T02:06:32.378Z,59.62
2023-03-03T02:07:32.363Z,59.30
2023-03-03T02:08:32.392Z,58.97
2023-03-03T02:09:32.379Z,58.97
2023-03-03T02:10:32.372Z,59.94
2023-03-03T02:11:32.332Z,59.14
2023-03-03T02:12:32.362Z,59.62
2023-03-03T02:13:32.323Z,59.94
2023-03-03T02:14:32.378Z,59.46
2023-03-03T02:15:32.364Z,59.62
2023-03-03T02:16:32.373Z,59.46
2023-03-03T02:17:32.295Z,60.10
2023-03-03T02:18:32.318Z,59.30
2023-03-03T02:19:32.306Z,59.62
2023-03-03T02:20:32.341Z,59.14
2023-03-03T02:21:32.287Z,59.94
2023-03-03T02:22:32.266Z,59.78
2023-03-03T02:23:32.288Z,59.94
2023-03-03T02:24:32.271Z,59.78
2023-03-03T02:25:32.259Z,59.94
2023-03-03T02:26:32.243Z,59.46
2023-03-03T02:27:32.282Z,59.46
2023-03-03T02:28:34.028Z,59.62
2023-03-03T02:29:32.281Z,59.46
2023-03-03T02:30:32.287Z,59.62
2023-03-03T02:31:32.339Z,59.46
2023-03-03T02:32:32.313Z,60.10
2023-03-03T02:33:32.274Z,59.78
2023-03-03T02:34:32.198Z,59.30
2023-03-03T02:35:32.233Z,58.49
2023-03-03T02:36:32.229Z,59.46
2023-03-03T02:37:32.215Z,60.26
2023-03-03T02:38:32.184Z,60.10
2023-03-03T02:39:32.228Z,60.10
2023-03-03T02:40:32.204Z,59.62
2023-03-03T02:41:33.036Z,60.42
2023-03-03T02:42:33.060Z,59.62
2023-03-03T02:43:32.159Z,60.10
2023-03-03T02:44:32.191Z,59.94
2023-03-03T02:45:33.105Z,59.30
2023-03-03T02:46:32.219Z,59.46
2023-03-03T02:47:33.057Z,59.30
2023-03-03T02:48:33.029Z,59.62
2023-03-03T02:49:32.256Z,59.62
2023-03-03T02:50:32.097Z,59.62
2023-03-03T02:51:32.113Z,60.10
2023-03-03T02:52:33.056Z,60.26
2023-03-03T02:53:32.085Z,59.62
2023-03-03T02:54:32.141Z,59.78
2023-03-03T02:55:32.072Z,60.26
2023-03-03T02:56:32.121Z,59.46
2023-03-03T02:57:32.037Z,59.62
2023-03-03T02:58:32.057Z,59.62
2023-03-03T02:59:32.096Z,59.62
2023-03-03T03:00:32.027Z,59.46
2023-03-03T03:01:32.289Z,58.81
2023-03-03T03:02:32.021Z,59.94
2023-03-03T03:03:32.008Z,58.97
2023-03-03T03:04:32.131Z,59.14
2023-03-03T03:05:32.006Z,59.94
2023-03-03T03:06:32.023Z,60.26
2023-03-03T03:07:32.122Z,60.91
2023-03-03T03:08:31.986Z,59.78
2023-03-03T03:09:31.992Z,59.78
2023-03-03T03:10:31.997Z,59.46
2023-03-03T03:11:32.024Z,59.62
2023-03-03T03:12:31.963Z,59.46
2023-03-03T03:13:32.010Z,59.62
2023-03-03T03:14:31.997Z,59.62
2023-03-03T03:15:32.005Z,59.94
2023-03-03T03:16:32.051Z,61.07
2023-03-03T03:17:31.955Z,59.94
2023-03-03T03:18:31.955Z,60.10
2023-03-03T03:19:31.947Z,59.62
2023-03-03T03:20:31.922Z,59.30
2023-03-03T03:21:31.913Z,59.46
2023-03-03T03:22:31.966Z,59.78
2023-03-03T03:23:31.934Z,59.94
2023-03-03T03:24:31.881Z,59.62
2023-03-03T03:25:31.938Z,60.26
2023-03-03T03:26:31.884Z,58.81
2023-03-03T03:27:31.882Z,59.62
2023-03-03T03:28:31.898Z,58.81
2023-03-03T03:29:31.904Z,60.10
2023-03-03T03:30:31.954Z,60.75
2023-03-03T03:31:31.895Z,59.62
2023-03-03T03:32:31.905Z,59.78
2023-03-03T03:33:31.870Z,59.78
2023-03-03T03:34:31.853Z,59.94
2023-03-03T03:35:31.918Z,60.10
2023-03-03T03:36:32.574Z,59.78
2023-03-03T03:37:32.509Z,60.91
2023-03-03T03:38:31.868Z,59.62
2023-03-03T03:39:32.629Z,60.10
2023-03-03T03:40:31.789Z,59.62
2023-03-03T03:41:31.798Z,59.78
2023-03-03T03:42:31.785Z,60.42
2023-03-03T03:43:32.548Z,59.94
2023-03-03T03:44:31.769Z,59.62
2023-03-03T03:45:31.754Z,59.94
2023-03-03T03:46:31.762Z,60.10
2023-03-03T03:47:31.741Z,59.62
2023-03-03T03:48:31.769Z,59.94
2023-03-03T03:49:31.767Z,59.62
2023-03-03T03:50:31.757Z,60.42
2023-03-03T03:51:31.727Z,60.26
2023-03-03T03:52:31.712Z,59.94
2023-03-03T03:53:31.727Z,59.78
2023-03-03T03:54:31.714Z,61.07
2023-03-03T03:55:31.716Z,59.78
2023-03-03T03:56:31.897Z,59.78
2023-03-03T03:57:31.752Z,60.59
2023-03-03T03:58:31.669Z,62.84
2023-03-03T03:59:31.669Z,60.10
2023-03-03T04:00:31.665Z,59.94
2023-03-03T04:01:31.669Z,60.10
2023-03-03T04:02:31.784Z,60.91
2023-03-03T04:03:31.767Z,59.30
2023-03-03T04:04:31.656Z,60.91
2023-03-03T04:05:31.670Z,60.75
2023-03-03T04:06:31.628Z,61.55
2023-03-03T04:07:31.646Z,60.75
2023-03-03T04:08:31.649Z,61.55
2023-03-03T04:09:31.740Z,60.75
2023-03-03T04:10:31.625Z,59.94
2023-03-03T04:11:31.642Z,60.91
2023-03-03T04:12:31.602Z,60.91
2023-03-03T04:13:32.551Z,59.78
2023-03-03T04:14:31.588Z,60.91
2023-03-03T04:15:31.658Z,61.87
2023-03-03T04:16:31.596Z,60.59
2023-03-03T04:17:31.598Z,60.59
2023-03-03T04:18:31.571Z,61.07
2023-03-03T04:19:32.601Z,60.91
2023-03-03T04:20:31.602Z,61.71
2023-03-03T04:21:31.575Z,60.59
2023-03-03T04:22:31.717Z,59.94
2023-03-03T04:23:31.556Z,61.07
2023-03-03T04:24:31.541Z,59.94
2023-03-03T04:25:32.073Z,61.39
2023-03-03T04:26:31.543Z,61.07
2023-03-03T04:27:31.635Z,60.10
2023-03-03T04:28:32.041Z,60.10
2023-03-03T04:29:31.521Z,60.59
2023-03-03T04:30:31.494Z,61.55
2023-03-03T04:31:31.505Z,61.55
2023-03-03T04:32:32.059Z,61.71
2023-03-03T04:33:31.515Z,63.81
2023-03-03T04:34:32.610Z,61.23
2023-03-03T04:35:31.488Z,60.91
2023-03-03T04:36:31.512Z,65.58
2023-03-03T04:37:31.492Z,61.39
2023-03-03T04:38:31.503Z,60.59
2023-03-03T04:39:31.441Z,60.91
2023-03-03T04:40:31.439Z,68.00
2023-03-03T04:41:31.451Z,62.36
2023-03-03T04:42:31.483Z,65.42
2023-03-03T04:43:31.452Z,61.07
2023-03-03T04:44:31.488Z,61.55
2023-03-03T04:45:32.053Z,63.00
2023-03-03T04:46:31.660Z,63.00
2023-03-03T04:47:31.400Z,63.97
2023-03-03T04:48:31.398Z,61.39
2023-03-03T04:49:32.072Z,60.26
2023-03-03T04:50:31.378Z,62.68
2023-03-03T04:51:31.415Z,59.94
2023-03-03T04:52:31.373Z,61.23
2023-03-03T04:53:32.027Z,63.65
2023-03-03T04:54:31.403Z,61.87
2023-03-03T04:55:31.342Z,61.87
2023-03-03T04:56:31.363Z,62.52
2023-03-03T04:57:31.335Z,63.97
2023-03-03T04:58:31.346Z,60.59
2023-03-03T04:59:31.362Z,62.04
2023-03-03T05:00:31.390Z,61.23
2023-03-03T05:01:31.331Z,62.84
2023-03-03T05:02:31.340Z,61.23
2023-03-03T05:03:31.302Z,65.74
2023-03-03T05:04:31.353Z,61.87
2023-03-03T05:05:31.313Z,61.87
2023-03-03T05:06:31.309Z,64.29
2023-03-03T05:07:31.287Z,61.07
2023-03-03T05:08:31.949Z,60.91
2023-03-03T05:09:31.276Z,62.84
2023-03-03T05:10:33.684Z,62.68
2023-03-03T05:11:31.334Z,65.58
2023-03-03T05:12:31.287Z,65.58
2023-03-03T05:13:32.057Z,61.55
2023-03-03T05:14:31.248Z,61.55
2023-03-03T05:15:31.227Z,61.39
2023-03-03T05:16:31.272Z,60.59
2023-03-03T05:17:31.252Z,63.49
2023-03-03T05:18:31.234Z,64.61
2023-03-03T05:19:31.211Z,62.52
2023-03-03T05:20:31.221Z,60.59
2023-03-03T05:21:32.015Z,62.36
2023-03-03T05:22:31.197Z,61.71
2023-03-03T05:23:31.210Z,62.04
2023-03-03T05:24:31.198Z,61.55
2023-03-03T05:25:31.206Z,61.71
2023-03-03T05:26:31.169Z,61.07
2023-03-03T05:27:31.174Z,65.26
2023-03-03T05:28:31.181Z,61.39
2023-03-03T05:29:31.140Z,61.39
2023-03-03T05:30:31.136Z,62.68
2023-03-03T05:31:31.191Z,65.10
2023-03-03T05:32:31.144Z,61.39
2023-03-03T05:33:31.126Z,61.39
2023-03-03T05:34:31.141Z,63.49
2023-03-03T05:35:31.125Z,65.74
2023-03-03T05:36:31.083Z,62.20
2023-03-03T05:37:31.092Z,66.55
2023-03-03T05:38:31.134Z,66.06
2023-03-03T05:39:31.071Z,66.23
2023-03-03T05:40:32.064Z,66.06
2023-03-03T05:41:31.205Z,67.68
2023-03-03T05:42:31.113Z,66.23
2023-03-03T05:43:31.101Z,64.94
2023-03-03T05:44:31.096Z,68.16
2023-03-03T05:45:31.039Z,69.45
2023-03-03T05:46:31.108Z,65.90
2023-03-03T05:47:32.006Z,65.90
2023-03-03T05:48:31.038Z,66.71
2023-03-03T05:49:31.038Z,65.90
2023-03-03T05:50:31.000Z,63.33
2023-03-03T05:51:31.167Z,64.13
2023-03-03T05:52:31.019Z,66.87
2023-03-03T05:53:30.992Z,69.29
2023-03-03T05:54:31.013Z,67.35
2023-03-03T05:55:31.143Z,65.10
2023-03-03T05:56:31.015Z,63.97
2023-03-03T05:57:30.997Z,65.90
2023-03-03T05:58:31.070Z,62.36
2023-03-03T05:59:30.970Z,66.39
2023-03-03T06:00:30.991Z,62.04
2023-03-03T06:01:30.967Z,63.49
2023-03-03T06:02:30.941Z,65.26
2023-03-03T06:03:31.528Z,67.51
2023-03-03T06:04:31.329Z,64.94
2023-03-03T06:05:30.896Z,64.94
2023-03-03T06:06:30.913Z,62.52
2023-03-03T06:07:31.020Z,67.84
2023-03-03T06:08:30.956Z,63.97
2023-03-03T06:09:30.908Z,65.90
2023-03-03T06:10:30.909Z,63.97
2023-03-03T06:11:30.897Z,64.78
2023-03-03T06:12:30.894Z,66.55
2023-03-03T06:13:31.033Z,64.29
2023-03-03T06:14:30.880Z,67.19
2023-03-03T06:15:31.713Z,62.36
2023-03-03T06:16:34.011Z,65.10
2023-03-03T06:17:32.568Z,66.55
2023-03-03T06:18:30.823Z,61.39
2023-03-03T06:19:30.900Z,64.45
2023-03-03T06:20:31.541Z,63.33
2023-03-03T06:21:30.898Z,63.81
2023-03-03T06:22:30.833Z,66.06
2023-03-03T06:23:30.810Z,65.26
2023-03-03T06:24:31.784Z,66.39
2023-03-03T06:25:31.701Z,64.94
2023-03-03T06:26:30.797Z,62.68
2023-03-03T06:27:30.797Z,62.04
2023-03-03T06:28:30.804Z,66.06
2023-03-03T06:29:30.787Z,65.74
2023-03-03T06:30:30.759Z,66.87
2023-03-03T06:31:31.090Z,64.78
2023-03-03T06:32:30.845Z,65.90
2023-03-03T06:33:30.781Z,64.45
2023-03-03T06:34:30.774Z,65.90
2023-03-03T06:35:30.790Z,68.96
2023-03-03T06:36:30.743Z,68.80
2023-03-03T06:37:30.798Z,69.77
2023-03-03T06:38:30.744Z,69.45
2023-03-03T06:39:31.433Z,72.51
2023-03-03T06:40:30.722Z,69.61
2023-03-03T06:41:30.682Z,69.13
2023-03-03T06:43:03.133Z,62.36
2023-03-03T06:44:03.093Z,68.80
2023-03-03T06:45:03.094Z,71.38
2023-03-03T06:46:03.162Z,63.33
2023-03-03T06:47:03.117Z,64.94
2023-03-03T06:48:03.116Z,66.87
2023-03-03T06:49:04.115Z,64.45
2023-03-03T06:50:03.082Z,69.93
2023-03-03T06:51:03.384Z,66.87
2023-03-03T06:51:30.645Z,71.70
2023-03-03T06:52:30.653Z,64.45
2023-03-03T06:53:30.631Z,68.16
2023-03-03T06:55:04.080Z,63.97
2023-03-03T06:55:30.602Z,66.39
2023-03-03T06:56:30.629Z,64.94
2023-03-03T06:57:30.652Z,67.51
2023-03-03T06:59:03.697Z,65.74
2023-03-03T06:59:30.569Z,67.68
2023-03-03T07:00:31.399Z,68.16
2023-03-03T07:01:31.210Z,68.16
2023-03-03T07:02:31.207Z,70.09
2023-03-03T07:03:30.573Z,63.33
2023-03-03T07:04:30.610Z,67.51
2023-03-03T07:05:30.566Z,63.81
2023-03-03T07:06:30.559Z,61.87
2023-03-03T07:07:30.735Z,64.61
2023-03-03T07:08:30.556Z,62.04
2023-03-03T07:09:30.534Z,68.96
2023-03-03T07:10:30.637Z,65.58
2023-03-03T07:11:30.507Z,67.35
2023-03-03T07:12:30.545Z,64.78
2023-03-03T07:13:30.527Z,64.78
2023-03-03T07:14:30.530Z,67.68
2023-03-03T07:15:30.510Z,63.65
2023-03-03T07:16:30.567Z,68.00
2023-03-03T07:17:30.497Z,63.49
2023-03-03T07:18:30.498Z,66.87
2023-03-03T07:19:30.512Z,69.77
2023-03-03T07:20:30.490Z,65.90
2023-03-03T07:21:31.161Z,68.00
2023-03-03T07:22:30.480Z,62.68
2023-03-03T07:23:30.594Z,68.00
2023-03-03T07:24:30.467Z,61.39
2023-03-03T07:25:30.484Z,62.36
2023-03-03T07:26:30.471Z,63.81
2023-03-03T07:27:30.426Z,64.78
2023-03-03T07:28:30.447Z,67.03
2023-03-03T07:29:30.453Z,65.58
2023-03-03T07:30:30.422Z,65.74
2023-03-03T07:31:30.475Z,64.29
2023-03-03T07:32:30.416Z,62.36
2023-03-03T07:33:30.401Z,66.39
2023-03-03T07:34:30.421Z,64.29
2023-03-03T07:35:30.583Z,69.13
2023-03-03T07:36:31.244Z,66.06
2023-03-03T07:37:30.402Z,62.36
2023-03-03T07:38:30.382Z,64.61
2023-03-03T07:39:30.365Z,65.10
2023-03-03T07:40:30.373Z,65.90
2023-03-03T07:41:30.332Z,66.23
2023-03-03T07:42:30.355Z,64.94
2023-03-03T07:43:30.382Z,69.61
2023-03-03T07:44:30.338Z,62.68
2023-03-03T07:45:30.365Z,68.00
2023-03-03T07:46:30.419Z,63.33
2023-03-03T07:47:30.353Z,64.61
2023-03-03T07:48:30.382Z,67.35
2023-03-03T07:49:30.307Z,64.13
2023-03-03T07:50:30.336Z,65.74
2023-03-03T07:51:30.270Z,66.87
2023-03-03T07:52:30.268Z,68.96
2023-03-03T07:53:30.271Z,66.23
2023-03-03T07:54:30.284Z,66.39
2023-03-03T07:55:30.251Z,68.64
2023-03-03T07:56:30.383Z,67.68
2023-03-03T07:57:30.260Z,65.90
2023-03-03T07:58:30.296Z,69.45
2023-03-03T07:59:30.245Z,67.68
2023-03-03T08:00:30.340Z,69.77
2023-03-03T08:01:30.224Z,68.32
2023-03-03T08:02:30.245Z,67.84
2023-03-03T08:03:30.203Z,62.84
2023-03-03T08:04:30.382Z,63.00
2023-03-03T08:05:30.227Z,67.03
2023-03-03T08:06:30.187Z,65.90
2023-03-03T08:07:30.206Z,62.84
2023-03-03T08:08:30.182Z,64.61
2023-03-03T08:09:30.167Z,64.61
2023-03-03T08:10:30.231Z,63.65
2023-03-03T08:11:36.583Z,64.94
2023-03-03T08:12:32.950Z,69.93
2023-03-03T08:13:31.136Z,66.71
2023-03-03T08:14:30.257Z,64.61
2023-03-03T08:15:30.254Z,64.61
2023-03-03T08:16:30.118Z,63.65
2023-03-03T08:17:30.149Z,63.16
2023-03-03T08:18:30.697Z,63.16
2023-03-03T08:19:30.134Z,67.68
2023-03-03T08:20:30.092Z,68.00
2023-03-03T08:21:30.149Z,69.77
2023-03-03T08:22:30.135Z,66.23
2023-03-03T08:23:30.109Z,65.90
2023-03-03T08:24:30.687Z,67.51
2023-03-03T08:25:30.102Z,68.48
2023-03-03T08:26:30.057Z,66.06
2023-03-03T08:27:30.052Z,62.36
2023-03-03T08:28:30.126Z,66.55
2023-03-03T08:29:30.695Z,65.90
2023-03-03T08:30:30.684Z,66.39
2023-03-03T08:31:40.807Z,65.10
2023-03-03T08:32:32.148Z,67.51
2023-03-03T08:33:30.023Z,62.04
2023-03-03T08:34:30.050Z,65.10
2023-03-03T08:35:30.060Z,61.87
2023-03-03T08:36:29.998Z,62.84
2023-03-03T08:37:30.001Z,63.65
2023-03-03T08:38:30.980Z,65.10
2023-03-03T08:39:30.709Z,65.10
2023-03-03T08:40:30.012Z,67.35
2023-03-03T08:41:30.017Z,66.39
2023-03-03T08:42:29.967Z,64.13
2023-03-03T08:43:29.949Z,66.06
2023-03-03T08:44:29.974Z,68.16
2023-03-03T08:45:29.941Z,67.35
2023-03-03T08:46:29.982Z,65.74
2023-03-03T08:47:29.937Z,68.96
2023-03-03T08:48:29.927Z,62.68
2023-03-03T08:49:29.974Z,64.94
2023-03-03T08:50:29.946Z,67.35
2023-03-03T08:51:29.924Z,65.74
2023-03-03T08:52:29.903Z,65.58
2023-03-03T08:53:29.911Z,69.13
2023-03-03T08:54:29.927Z,67.68
2023-03-03T08:55:29.882Z,62.36
2023-03-03T08:56:29.886Z,64.61
2023-03-03T08:57:29.903Z,63.97
2023-03-03T08:58:35.243Z,67.51
2023-03-03T08:59:32.132Z,65.90
2023-03-03T09:00:29.854Z,63.65
2023-03-03T09:01:29.935Z,62.68
2023-03-03T09:02:29.852Z,65.26
2023-03-03T09:03:29.826Z,66.39
2023-03-03T09:04:29.859Z,61.87
2023-03-03T09:05:29.836Z,67.35
2023-03-03T09:06:29.853Z,64.94
2023-03-03T09:07:29.812Z,66.55
2023-03-03T09:08:30.379Z,61.87
2023-03-03T09:09:30.688Z,64.61
2023-03-03T09:10:29.800Z,67.35
2023-03-03T09:11:29.787Z,64.78
2023-03-03T09:12:29.844Z,64.45
2023-03-03T09:13:29.792Z,64.13
2023-03-03T09:14:29.766Z,63.49
2023-03-03T09:15:29.763Z,68.48
2023-03-03T09:16:29.807Z,70.09
2023-03-03T09:17:29.753Z,66.06
2023-03-03T09:18:29.801Z,62.20
2023-03-03T09:19:29.778Z,64.94
2023-03-03T09:20:29.729Z,62.52
2023-03-03T09:21:29.727Z,67.68
2023-03-03T09:22:29.744Z,66.23
2023-03-03T09:23:29.751Z,63.49
2023-03-03T09:24:29.737Z,66.06
2023-03-03T09:25:29.797Z,65.74
2023-03-03T09:26:29.717Z,66.87
2023-03-03T09:27:29.692Z,67.19
2023-03-03T09:28:29.698Z,65.26
2023-03-03T09:29:29.685Z,62.04
2023-03-03T09:30:29.682Z,66.87
2023-03-03T09:31:29.753Z,66.23
2023-03-03T09:32:29.667Z,63.00
2023-03-03T09:33:29.645Z,67.03
2023-03-03T09:34:29.663Z,64.45
2023-03-03T09:35:29.881Z,62.36
2023-03-03T09:36:29.663Z,64.61
2023-03-03T09:37:29.682Z,65.10
2023-03-03T09:38:29.618Z,69.45
2023-03-03T09:39:29.715Z,64.45
2023-03-03T09:40:29.601Z,60.59
2023-03-03T09:41:29.603Z,64.61
2023-03-03T09:42:29.628Z,60.26
2023-03-03T09:43:29.584Z,63.81
2023-03-03T09:44:29.601Z,65.58
2023-03-03T09:45:29.589Z,64.45
2023-03-03T09:46:29.659Z,60.59
2023-03-03T09:47:29.568Z,68.48
2023-03-03T09:48:29.567Z,67.84
2023-03-03T09:49:29.559Z,68.48
2023-03-03T09:50:29.582Z,68.96
2023-03-03T09:51:29.570Z,61.87
2023-03-03T09:52:29.554Z,66.39
2023-03-03T09:53:29.524Z,65.90
2023-03-03T09:54:29.522Z,62.20
2023-03-03T09:55:29.506Z,68.00
2023-03-03T09:56:29.504Z,68.00
2023-03-03T09:57:29.526Z,65.74
2023-03-03T09:58:29.491Z,62.20
2023-03-03T09:59:29.541Z,65.74
2023-03-03T10:00:29.601Z,66.23
2023-03-03T10:01:29.469Z,63.49
2023-03-03T10:02:29.479Z,66.23
2023-03-03T10:03:29.570Z,64.13
2023-03-03T10:04:29.541Z,69.45
2023-03-03T10:05:29.460Z,70.09
2023-03-03T10:06:29.465Z,62.20
2023-03-03T10:07:29.463Z,68.64
2023-03-03T10:08:31.544Z,68.96
2023-03-03T10:09:30.472Z,63.65
2023-03-03T10:10:29.436Z,68.96
2023-03-03T10:11:29.423Z,66.23
2023-03-03T10:12:29.420Z,60.10
2023-03-03T10:13:29.453Z,62.84
2023-03-03T10:14:29.413Z,61.23
2023-03-03T10:15:29.394Z,63.65
2023-03-03T10:16:29.442Z,63.49
2023-03-03T10:17:29.388Z,67.84
2023-03-03T10:18:32.149Z,67.03
2023-03-03T10:19:29.380Z,68.00
2023-03-03T10:20:34.776Z,60.42
2023-03-03T10:21:31.353Z,64.61
2023-03-03T10:22:29.438Z,65.74
2023-03-03T10:23:29.347Z,60.59
2023-03-03T10:24:30.142Z,65.58
2023-03-03T10:25:29.354Z,64.78
2023-03-03T10:26:43.968Z,69.13
2023-03-03T10:27:31.433Z,67.19
2023-03-03T10:28:29.303Z,63.16
2023-03-03T10:29:30.863Z,64.78
2023-03-03T10:30:39.980Z,63.00
2023-03-03T10:31:31.373Z,66.55
2023-03-03T10:32:29.444Z,65.42
2023-03-03T10:33:29.454Z,68.64
2023-03-03T10:34:29.331Z,65.10
2023-03-03T10:35:29.310Z,71.54
2023-03-03T10:36:30.590Z,69.45
2023-03-03T10:37:30.285Z,71.22
2023-03-03T10:38:29.252Z,62.68
2023-03-03T10:39:29.261Z,67.51
2023-03-03T10:40:29.268Z,64.61
2023-03-03T10:41:30.265Z,62.68
2023-03-03T10:42:29.221Z,62.04
2023-03-03T10:43:32.206Z,65.10
2023-03-03T10:44:30.210Z,63.97
2023-03-03T10:45:29.348Z,61.07
2023-03-03T10:46:29.197Z,66.23
2023-03-03T10:47:29.194Z,68.00
2023-03-03T10:48:29.210Z,61.39
2023-03-03T10:49:29.186Z,68.16
2023-03-03T10:50:29.171Z,65.26
2023-03-03T10:51:29.199Z,69.93
2023-03-03T10:52:29.158Z,66.06
2023-03-03T10:53:29.177Z,65.74
2023-03-03T10:54:29.152Z,66.39
2023-03-03T10:55:29.154Z,66.71
2023-03-03T10:56:29.146Z,65.42
2023-03-03T10:57:29.133Z,64.29
2023-03-03T10:58:29.130Z,64.94
2023-03-03T10:59:29.223Z,63.97
2023-03-03T11:00:29.124Z,62.84
2023-03-03T11:01:29.174Z,61.55
2023-03-03T11:02:29.097Z,69.29
2023-03-03T11:03:29.132Z,66.87
2023-03-03T11:04:29.152Z,68.80
2023-03-03T11:05:29.078Z,64.29
2023-03-03T11:06:29.064Z,62.04
2023-03-03T11:07:29.083Z,63.65
2023-03-03T11:08:29.057Z,71.06
2023-03-03T11:09:29.051Z,64.13
2023-03-03T11:10:29.100Z,68.96
2023-03-03T11:11:29.041Z,68.32
2023-03-03T11:12:29.073Z,64.45
2023-03-03T11:13:29.084Z,68.64
2023-03-03T11:14:29.080Z,66.55
2023-03-03T11:15:29.050Z,67.68
2023-03-03T11:16:29.295Z,69.77
2023-03-03T11:17:29.009Z,65.58
2023-03-03T11:18:29.005Z,69.29
2023-03-03T11:19:28.998Z,67.84
2023-03-03T11:20:28.980Z,69.45
2023-03-03T11:21:29.017Z,70.25
2023-03-03T11:22:28.992Z,61.71
2023-03-03T11:23:28.990Z,69.13
2023-03-03T11:24:28.978Z,61.07
2023-03-03T11:25:28.952Z,70.42
2023-03-03T11:26:29.093Z,67.51
2023-03-03T11:27:28.935Z,70.74
2023-03-03T11:28:28.931Z,64.78
2023-03-03T11:29:28.943Z,66.39
2023-03-03T11:30:28.919Z,62.68
2023-03-03T11:31:31.725Z,67.19
2023-03-03T11:32:30.000Z,70.58
2023-03-03T11:33:28.918Z,69.45
2023-03-03T11:34:28.886Z,69.93
2023-03-03T11:35:28.940Z,64.78
2023-03-03T11:36:28.900Z,68.00
2023-03-03T11:37:28.916Z,67.19
2023-03-03T11:38:28.889Z,63.97
2023-03-03T11:39:28.861Z,60.26
2023-03-03T11:40:28.862Z,63.00
2023-03-03T11:41:28.900Z,70.58
2023-03-03T11:42:28.873Z,60.26
2023-03-03T11:43:36.541Z,70.25
2023-03-03T11:44:30.840Z,67.68
2023-03-03T11:45:28.942Z,69.61
2023-03-03T11:46:28.943Z,63.81
2023-03-03T11:47:31.368Z,70.09
2023-03-03T11:48:29.861Z,67.35
2023-03-03T11:49:28.827Z,68.96
2023-03-03T11:50:28.799Z,65.26
2023-03-03T11:51:28.799Z,68.96
2023-03-03T11:52:28.822Z,65.90
2023-03-03T11:53:28.791Z,66.06
2023-03-03T11:54:28.880Z,67.19
2023-03-03T11:55:29.257Z,68.00
2023-03-03T11:56:28.771Z,68.00
2023-03-03T11:57:29.783Z,70.25
2023-03-03T11:58:28.817Z,66.23
2023-03-03T11:59:28.785Z,65.42
2023-03-03T12:00:28.753Z,69.13
2023-03-03T12:01:28.770Z,67.03
2023-03-03T12:02:28.796Z,68.64
2023-03-03T12:03:28.892Z,63.33
2023-03-03T12:04:28.946Z,61.55
2023-03-03T12:05:29.673Z,66.87
2023-03-03T12:06:28.788Z,72.03
2023-03-03T12:07:28.704Z,70.09
2023-03-03T12:08:28.705Z,66.71
2023-03-03T12:09:28.698Z,64.78
2023-03-03T12:10:28.691Z,65.42
2023-03-03T12:11:28.698Z,67.03
2023-03-03T12:12:28.663Z,72.35
2023-03-03T12:13:28.662Z,63.00
2023-03-03T12:14:28.664Z,63.00
2023-03-03T12:15:28.652Z,69.45
2023-03-03T12:16:28.635Z,68.00
2023-03-03T12:17:29.232Z,66.39
2023-03-03T12:18:28.641Z,66.87
2023-03-03T12:19:28.675Z,64.29
2023-03-03T12:20:28.629Z,68.64
2023-03-03T12:22:08.517Z,65.74
2023-03-03T12:22:28.600Z,70.25
2023-03-03T12:23:28.577Z,70.09
2023-03-03T12:24:29.563Z,65.74
2023-03-03T12:25:28.553Z,64.94
2023-03-03T12:26:28.595Z,70.25
2023-03-03T12:27:28.558Z,65.58
2023-03-03T12:28:28.568Z,66.55
2023-03-03T12:29:28.540Z,68.16
2023-03-03T12:30:28.623Z,65.74
2023-03-03T12:31:28.586Z,67.68
2023-03-03T12:32:28.649Z,64.78
2023-03-03T12:33:28.569Z,66.55
2023-03-03T12:34:28.519Z,65.42
2023-03-03T12:35:28.552Z,73.80
2023-03-03T12:36:28.632Z,68.48
2023-03-03T12:37:28.518Z,68.96
2023-03-03T12:38:28.593Z,65.74
2023-03-03T12:39:34.984Z,66.23
2023-03-03T12:40:30.474Z,66.55
2023-03-03T12:41:28.530Z,72.19
2023-03-03T12:42:28.485Z,65.10
2023-03-03T12:43:28.473Z,65.42
2023-03-03T12:44:28.497Z,67.03
2023-03-03T12:45:28.448Z,65.90
2023-03-03T12:46:29.125Z,67.03
2023-03-03T12:47:29.480Z,71.70
2023-03-03T12:48:28.499Z,68.96
2023-03-03T12:49:32.447Z,70.90
2023-03-03T12:50:29.420Z,73.80
2023-03-03T12:51:28.424Z,69.61
2023-03-03T12:52:28.483Z,64.29